Flight Track Log - Related Links

Times and Time Zones

All times are in EDT time to prevent confusion due to time zone crossing. See the SKW5305 flight status page for this flight to view local times or setup timezone preferences in your user account.

Time Position Orientation Groundspeed Altitude Reporting Facility
EDT Latitude Longitude Course Direction KTS MPH feet Rate Location/Type
Mon 08:39:20 PM 47.4464 -122.3108 180° South 121 139 1,200  Level Seattle Center
Mon 08:40:57 PM 47.3733 -122.3117 180° South 184 212 4,300 1,822 Climbing Seattle Center
Mon 08:41:35 PM 47.3506 -122.3111 179° South 176 203 5,300 1,818 Climbing Seattle Center
Mon 08:42:36 PM 47.2997 -122.3100 179° South 183 211 7,300 1,869 Climbing Seattle Center
Mon 08:43:37 PM 47.2456 -122.3100 180° South 194 223 9,100 2,066 Climbing Seattle Center
Mon 08:44:38 PM 47.1772 -122.3108 180° South 206 237 11,500 1,918 Climbing Seattle Center
Mon 08:45:39 PM 47.1169 -122.3094 179° South 217 250 13,000 1,475 Climbing Seattle Center
Mon 08:46:40 PM 47.0533 -122.3100 180° South 229 264 14,500 984 Climbing Seattle Center
Mon 08:47:41 PM 46.9856 -122.3111 181° South 246 283 15,000 246 Climbing Seattle Center
Mon 08:48:42 PM 46.9069 -122.3131 181° South 283 326 15,000  Level Seattle Center
Mon 08:49:43 PM 46.8278 -122.3108 179° South 291 335 15,000  Level Seattle Center
Mon 08:50:44 PM 46.7483 -122.3114 180° South 288 331 15,000  Level Seattle Center
Mon 08:51:45 PM 46.6708 -122.3253 187° South 284 327 15,000  Level Seattle Center
Mon 08:52:46 PM 46.5775 -122.3392 186° South 283 326 15,000  Level Seattle Center
Mon 08:53:47 PM 46.5003 -122.3508 186° South 282 325 15,000  Level Seattle Center
Mon 08:55:05 PM 46.3950 -122.3656 186° South 284 327 15,000 -298 Level Seattle Center
Mon 08:55:48 PM 46.3439 -122.3694 183° South 284 327 14,400 -1,059 Descending Seattle Center
Mon 08:56:13 PM 46.3042 -122.3786 189° South 294 338 13,800 -1,377 Descending Seattle Center
Mon 08:56:49 PM 46.2606 -122.3786 180° South 300 345 13,000 -1,500 Descending Seattle Center
Mon 08:57:13 PM 46.2197 -122.3889 190° South 306 352 12,300 -1,574 Descending Seattle Center
Mon 08:57:50 PM 46.1694 -122.3936 184° South 304 350 11,400 -1,180 Descending Seattle Center
Mon 08:58:14 PM 46.1311 -122.4011 188° South 305 351 11,100 -885 Descending Seattle Center
Mon 08:58:51 PM 46.0889 -122.4078 186° South 292 336 10,500 -1,082 Descending Seattle Center
Mon 08:59:15 PM 46.0533 -122.4239 197° South 285 328 10,000 -1,279 Descending Seattle Center
Mon 08:59:52 PM 46.0128 -122.4319 188° South 283 326 9,200 -984 Descending Seattle Center
Mon 09:00:16 PM 45.9739 -122.4289 177° South 287 330 9,000 -492 Descending Seattle Center
Mon 09:00:53 PM 45.9333 -122.4314 182° South 283 326 8,700 -900 Descending Seattle Center
Mon 09:01:16 PM 45.8961 -122.4300 179° South 280 322 8,100 -1,574 Descending Seattle Center
Mon 09:01:54 PM 45.8550 -122.4328 183° South 282 325 7,100 -1,672 Descending Seattle Center
Mon 09:02:17 PM 45.8169 -122.4350 182° South 283 326 6,400 -1,770 Descending Seattle Center
Mon 09:02:55 PM 45.7781 -122.4367 182° South 279 321 5,300 -1,869 Descending Seattle Center
Mon 09:03:18 PM 45.7417 -122.4383 182° South 269 310 4,500 -1,700 Descending Seattle Center
Mon 09:03:55 PM 45.7036 -122.4411 183° South 272 313 3,600 -1,082 Descending Seattle Center
Mon 09:04:19 PM 45.6619 -122.4403 179° South 262 302 3,400 -590 Descending Seattle Center
Mon 09:04:56 PM 45.6308 -122.4428 183° South 266 306 3,000 -649 Descending Seattle Center

Login

Don't have an account? Register now (free) for customized features, flight alerts, and more!